Time;durP1;ratioP1;P1;durP2;ratioP2;P2;SDS_P1;SDS_P2;PMS_P1;PMS_P2;Temp;Humidity;BMP_temperature;BMP_pressure;BME280_temperature;BME280_humidity;BME280_pressure;Samples;Min_cycle;Max_cycle;Signal;HPM_P1;HPM_P2
2021/05/13 00:00:43;;;;;;;5.63;3.90;;;10.50;99.90;;;;;;5040658;28;20051;-78
2021/05/13 00:03:08;;;;;;;4.72;3.83;;;10.50;99.90;;;;;;5046330;28;20029;-78
2021/05/13 00:05:34;;;;;;;5.75;3.90;;;10.40;99.90;;;;;;5049118;28;20485;-78
2021/05/13 00:08:00;;;;;;;4.40;3.28;;;10.50;99.90;;;;;;5033220;28;20037;-78
2021/05/13 00:10:28;;;;;;;5.05;4.03;;;10.40;99.90;;;;;;5051109;28;20040;-78
2021/05/13 00:12:58;;;;;;;5.68;4.20;;;10.40;99.90;;;;;;5050153;28;20032;-79
2021/05/13 00:15:30;;;;;;;4.32;3.42;;;10.40;99.90;;;;;;5049499;28;20055;-78
2021/05/13 00:17:56;;;;;;;4.28;3.35;;;10.40;99.90;;;;;;5048983;28;20037;-78
2021/05/13 00:20:28;;;;;;;8.27;4.05;;;10.40;99.90;;;;;;5033344;28;20539;-78
2021/05/13 00:22:54;;;;;;;6.20;3.63;;;10.40;99.90;;;;;;5049907;28;20044;-78
2021/05/13 00:25:20;;;;;;;10.23;4.28;;;10.40;99.90;;;;;;5050426;28;20021;-78
2021/05/13 00:27:49;;;;;;;5.43;3.80;;;10.40;99.90;;;;;;5049290;28;20028;-78
2021/05/13 00:30:16;;;;;;;4.68;3.30;;;10.40;99.90;;;;;;5049802;28;20512;-78
2021/05/13 00:32:42;;;;;;;4.55;3.58;;;10.40;99.90;;;;;;5033187;28;20041;-78
2021/05/13 00:35:11;;;;;;;5.05;3.50;;;10.40;99.90;;;;;;5048874;28;20128;-78
2021/05/13 00:37:37;;;;;;;4.35;3.60;;;10.40;99.90;;;;;;5049762;28;20037;-78
2021/05/13 00:40:04;;;;;;;4.78;3.60;;;10.40;99.90;;;;;;5050123;28;20031;-78
2021/05/13 00:42:30;;;;;;;3.83;3.30;;;10.50;99.90;;;;;;5029047;28;20037;-78
2021/05/13 00:44:56;;;;;;;4.63;3.08;;;10.50;99.90;;;;;;5045222;28;20025;-78
2021/05/13 00:47:24;;;;;;;4.78;3.63;;;10.50;99.90;;;;;;5040211;28;20036;-78
2021/05/13 00:49:50;;;;;;;4.47;3.60;;;10.50;99.90;;;;;;5050711;28;20529;-78
2021/05/13 00:52:19;;;;;;;8.43;3.78;;;10.50;99.90;;;;;;5066226;28;20025;-78
2021/05/13 00:54:45;;;;;;;5.70;3.70;;;10.50;99.90;;;;;;5050417;28;20533;-78
2021/05/13 00:57:15;;;;;;;5.13;3.90;;;10.50;99.90;;;;;;5049169;28;20041;-78
2021/05/13 00:59:44;;;;;;;4.55;3.60;;;10.50;99.90;;;;;;5047999;28;20489;-78
2021/05/13 01:02:10;;;;;;;3.85;3.45;;;10.50;99.90;;;;;;5029466;28;20057;-79
2021/05/13 01:04:36;;;;;;;7.65;3.90;;;10.50;99.90;;;;;;5036232;28;20116;-78
2021/05/13 01:07:03;;;;;;;4.28;3.45;;;10.50;99.90;;;;;;5051202;28;20151;-78
2021/05/13 01:09:31;;;;;;;5.38;3.75;;;10.50;99.90;;;;;;5049440;28;20037;-78
2021/05/13 01:12:03;;;;;;;5.35;3.90;;;10.50;99.90;;;;;;5050168;28;20504;-79
2021/05/13 01:19:32;;;;;;;5.22;3.72;;;10.40;99.90;;;;;;5046423;28;20025;-78
2021/05/13 01:21:58;;;;;;;4.38;3.75;;;10.50;99.90;;;;;;5057520;28;20096;-78
2021/05/13 01:24:24;;;;;;;4.45;3.47;;;10.40;99.90;;;;;;5070378;28;20473;-79
2021/05/13 01:26:50;;;;;;;5.00;3.75;;;10.50;99.90;;;;;;5051156;28;20080;-79
2021/05/13 01:29:24;;;;;;;6.38;4.13;;;10.50;99.90;;;;;;5050295;28;20648;-78
2021/05/13 01:31:51;;;;;;;5.25;3.80;;;10.50;99.90;;;;;;5050249;28;20409;-78
2021/05/13 01:34:17;;;;;;;4.32;3.78;;;10.50;99.90;;;;;;5032653;28;20025;-78
2021/05/13 01:36:44;;;;;;;4.68;3.95;;;10.50;99.90;;;;;;5049628;28;20120;-78
2021/05/13 01:39:11;;;;;;;6.80;4.38;;;10.50;99.90;;;;;;5050322;28;20056;-79
2021/05/13 01:41:38;;;;;;;4.60;3.70;;;10.50;99.90;;;;;;5049040;28;20033;-79
2021/05/13 01:44:04;;;;;;;5.72;3.88;;;10.40;99.90;;;;;;5048899;28;20087;-78
2021/05/13 01:46:30;;;;;;;5.32;4.25;;;10.40;99.90;;;;;;5048702;28;20029;-78
2021/05/13 01:48:56;;;;;;;6.60;4.00;;;10.40;99.90;;;;;;5050143;28;20539;-78
2021/05/13 01:51:22;;;;;;;7.00;4.68;;;10.40;99.90;;;;;;5052283;28;20076;-78
2021/05/13 01:53:48;;;;;;;6.10;4.15;;;10.40;99.90;;;;;;5053881;28;20033;-78
2021/05/13 01:56:14;;;;;;;5.15;3.75;;;10.40;99.90;;;;;;5053341;28;20040;-78
2021/05/13 01:58:40;;;;;;;4.43;3.83;;;10.40;99.90;;;;;;5053456;28;20029;-78
2021/05/13 02:01:10;;;;;;;4.07;3.38;;;10.40;99.90;;;;;;5053813;28;20053;-78
2021/05/13 02:03:37;;;;;;;6.07;4.43;;;10.30;99.90;;;;;;5028244;28;20030;-78
2021/05/13 02:06:04;;;;;;;5.15;3.83;;;10.40;99.90;;;;;;5033166;28;20106;-78
2021/05/13 02:08:34;;;;;;;4.43;3.72;;;10.40;99.90;;;;;;5038742;28;20082;-78
2021/05/13 02:11:00;;;;;;;3.95;3.17;;;10.40;99.90;;;;;;5053435;28;20032;-78
2021/05/13 02:13:25;;;;;;;5.07;4.05;;;10.40;99.90;;;;;;5053575;28;20167;-78
2021/05/13 02:15:52;;;;;;;6.00;4.45;;;10.40;99.90;;;;;;5052800;28;20119;-78
2021/05/13 02:18:20;;;;;;;4.47;3.53;;;10.40;99.90;;;;;;5053364;28;20025;-78
2021/05/13 02:20:49;;;;;;;6.40;4.32;;;10.30;99.90;;;;;;5051879;28;20220;-79
2021/05/13 02:23:15;;;;;;;7.18;3.97;;;10.30;99.90;;;;;;5052986;28;20103;-78
2021/05/13 02:25:45;;;;;;;5.15;3.75;;;10.30;99.90;;;;;;5045370;28;20026;-78
2021/05/13 02:28:11;;;;;;;6.20;4.03;;;10.30;99.90;;;;;;5039757;28;20523;-77
2021/05/13 02:30:37;;;;;;;5.22;3.63;;;10.30;99.90;;;;;;5056471;28;20111;-79
2021/05/13 02:33:03;;;;;;;4.28;3.60;;;10.30;99.90;;;;;;5063962;28;20036;-78
2021/05/13 02:35:29;;;;;;;6.35;4.20;;;10.30;99.90;;;;;;5064357;28;20039;-78
2021/05/13 02:37:55;;;;;;;4.78;3.63;;;10.30;99.90;;;;;;5052970;28;20020;-78
2021/05/13 02:40:21;;;;;;;4.72;3.40;;;10.30;99.90;;;;;;5061370;28;20413;-78
2021/05/13 02:42:47;;;;;;;8.68;4.38;;;10.30;99.90;;;;;;5060496;28;20055;-78
2021/05/13 02:45:14;;;;;;;7.68;4.00;;;10.30;99.90;;;;;;5050515;28;20025;-78
2021/05/13 02:47:40;;;;;;;6.68;4.50;;;10.30;99.90;;;;;;5054779;28;20032;-78
2021/05/13 02:50:09;;;;;;;4.90;3.85;;;10.30;99.90;;;;;;5060676;28;20147;-78
2021/05/13 02:52:35;;;;;;;4.68;3.60;;;10.30;99.90;;;;;;5067618;28;20028;-78
2021/05/13 02:55:00;;;;;;;5.18;4.15;;;10.30;99.90;;;;;;5055556;28;20041;-78
2021/05/13 02:57:26;;;;;;;4.80;3.80;;;10.30;99.90;;;;;;5049783;28;20032;-78
2021/05/13 02:59:59;;;;;;;5.93;3.75;;;10.30;99.90;;;;;;5059335;28;20040;-78
2021/05/13 03:02:25;;;;;;;6.43;4.10;;;10.30;99.90;;;;;;5053251;28;20087;-78
2021/05/13 03:04:51;;;;;;;6.07;4.32;;;10.30;99.90;;;;;;5066399;28;20044;-78
2021/05/13 03:07:16;;;;;;;4.80;3.47;;;10.30;99.90;;;;;;5046900;28;20041;-78
2021/05/13 03:09:50;;;;;;;6.75;4.10;;;10.30;99.90;;;;;;5051205;28;20054;-78
2021/05/13 03:12:15;;;;;;;4.93;3.72;;;10.30;99.90;;;;;;5058159;28;20040;-79
2021/05/13 03:14:43;;;;;;;5.15;3.28;;;10.30;99.90;;;;;;5058814;28;20136;-78
2021/05/13 03:17:09;;;;;;;6.18;2.97;;;10.20;99.90;;;;;;5045303;28;20044;-78
2021/05/13 03:19:46;;;;;;;4.40;3.13;;;10.20;99.90;;;;;;5055300;28;20028;-78
2021/05/13 03:22:16;;;;;;;5.13;3.40;;;10.20;99.90;;;;;;5046532;28;20032;-78
2021/05/13 03:24:48;;;;;;;3.55;2.88;;;10.20;99.90;;;;;;5054700;28;20044;-78
2021/05/13 03:29:56;;;;;;;3.60;2.85;;;10.20;99.90;;;;;;5042360;28;20179;-78
2021/05/13 03:32:23;;;;;;;3.63;2.95;;;10.20;99.90;;;;;;5053312;28;20133;-78
2021/05/13 03:34:48;;;;;;;2.65;2.45;;;10.20;99.90;;;;;;5062280;28;20037;-79
2021/05/13 03:37:14;;;;;;;3.97;2.70;;;10.20;99.90;;;;;;5034987;28;20026;-79
2021/05/13 03:39:40;;;;;;;4.30;3.10;;;10.20;99.90;;;;;;5060377;28;20029;-79
2021/05/13 03:42:06;;;;;;;3.90;2.42;;;10.20;99.90;;;;;;5062778;28;20039;-78
2021/05/13 03:44:32;;;;;;;3.78;2.80;;;10.20;99.90;;;;;;5058476;28;20119;-78
2021/05/13 03:46:58;;;;;;;3.70;2.65;;;10.20;99.90;;;;;;5062320;28;20082;-79
2021/05/13 03:49:25;;;;;;;4.85;3.17;;;10.20;99.90;;;;;;5046259;28;20642;-78
2021/05/13 03:51:51;;;;;;;3.75;3.15;;;10.20;99.90;;;;;;5056114;28;20472;-78
2021/05/13 03:54:17;;;;;;;4.70;3.05;;;10.20;99.90;;;;;;5059653;28;20037;-78
2021/05/13 03:56:43;;;;;;;4.72;3.45;;;10.20;99.90;;;;;;5049856;28;20037;-78
2021/05/13 03:59:14;;;;;;;4.78;3.13;;;10.20;99.90;;;;;;5030988;28;20040;-79
2021/05/13 04:04:14;;;;;;;3.92;3.50;;;10.20;99.90;;;;;;5058102;28;20037;-78
2021/05/13 04:06:40;;;;;;;3.15;2.85;;;10.20;99.90;;;;;;5044618;28;20066;-78
2021/05/13 04:09:08;;;;;;;5.70;2.90;;;10.20;99.90;;;;;;5049984;28;20028;-78
2021/05/13 04:11:39;;;;;;;3.50;2.80;;;10.20;99.90;;;;;;5061448;28;20119;-78
2021/05/13 04:14:06;;;;;;;3.10;2.70;;;10.20;99.90;;;;;;5056851;28;20036;-78
2021/05/13 04:16:33;;;;;;;3.72;3.28;;;10.20;99.90;;;;;;5047358;28;20060;-78
2021/05/13 04:18:59;;;;;;;3.10;2.80;;;10.20;99.90;;;;;;5050264;28;20036;-78
2021/05/13 04:21:25;;;;;;;3.13;2.75;;;10.20;99.90;;;;;;5063545;28;20029;-79
2021/05/13 04:23:51;;;;;;;2.45;2.22;;;10.20;99.90;;;;;;5058105;28;20025;-78
2021/05/13 04:26:17;;;;;;;3.75;2.38;;;10.20;99.90;;;;;;5044354;28;20033;-79
2021/05/13 04:28:42;;;;;;;2.90;2.50;;;10.20;99.90;;;;;;5055415;28;20407;-78
2021/05/13 04:31:08;;;;;;;3.35;2.35;;;10.30;99.90;;;;;;5041297;28;20440;-78
2021/05/13 04:33:34;;;;;;;5.57;2.63;;;10.20;99.90;;;;;;5043872;28;20498;-79
2021/05/13 04:36:00;;;;;;;3.42;2.30;;;10.20;99.90;;;;;;5057307;28;20056;-78
2021/05/13 04:38:26;;;;;;;2.55;2.35;;;10.20;99.90;;;;;;5052704;28;20033;-79
2021/05/13 04:40:52;;;;;;;5.38;2.05;;;10.20;99.90;;;;;;5065745;28;20047;-78
2021/05/13 04:43:19;;;;;;;2.83;2.40;;;10.20;99.90;;;;;;5046456;28;20119;-78
2021/05/13 04:45:46;;;;;;;2.42;2.22;;;10.20;99.90;;;;;;5055355;28;20032;-78
2021/05/13 04:48:15;;;;;;;3.05;2.40;;;10.20;99.90;;;;;;5049968;28;20659;-79
2021/05/13 04:50:41;;;;;;;2.13;1.92;;;10.20;99.90;;;;;;5056428;28;20037;-78
2021/05/13 04:53:08;;;;;;;3.65;1.75;;;10.20;99.90;;;;;;5056850;28;20043;-78
2021/05/13 04:55:36;;;;;;;2.78;2.05;;;10.20;99.90;;;;;;5058463;28;20029;-78
2021/05/13 04:58:02;;;;;;;2.42;2.15;;;10.20;99.90;;;;;;5045235;28;20489;-79
2021/05/13 05:00:28;;;;;;;3.45;2.00;;;10.20;99.90;;;;;;5056283;28;20055;-78
2021/05/13 05:02:54;;;;;;;2.42;1.90;;;10.20;99.90;;;;;;5056647;28;20021;-78
2021/05/13 05:05:20;;;;;;;2.58;1.98;;;10.20;99.90;;;;;;5058924;28;20400;-78
2021/05/13 05:07:45;;;;;;;2.03;1.75;;;10.20;99.90;;;;;;5045884;28;20033;-78
2021/05/13 05:10:12;;;;;;;2.08;1.60;;;10.20;99.90;;;;;;5047198;28;20041;-78
2021/05/13 05:12:38;;;;;;;2.03;1.73;;;10.20;99.90;;;;;;5058224;28;20086;-79
2021/05/13 05:15:05;;;;;;;2.08;1.90;;;10.20;99.90;;;;;;5050287;28;20109;-77
2021/05/13 05:17:30;;;;;;;1.92;1.73;;;10.20;99.90;;;;;;5049468;28;20707;-78
2021/05/13 05:19:56;;;;;;;2.25;1.50;;;10.20;99.90;;;;;;5031300;28;20114;-78
2021/05/13 05:22:22;;;;;;;1.88;1.40;;;10.20;99.90;;;;;;5054351;28;20025;-78
2021/05/13 05:24:48;;;;;;;1.67;1.30;;;10.30;99.90;;;;;;5059536;28;20040;-78
2021/05/13 05:27:13;;;;;;;1.90;1.58;;;10.30;99.90;;;;;;5054584;28;20028;-78
2021/05/13 05:29:39;;;;;;;1.42;1.33;;;10.30;99.90;;;;;;5047832;28;20021;-78
2021/05/13 05:32:05;;;;;;;2.15;1.50;;;10.30;99.90;;;;;;5056927;28;20436;-79
2021/05/13 05:34:31;;;;;;;2.28;2.08;;;10.30;99.90;;;;;;5063890;28;20716;-78
2021/05/13 05:36:57;;;;;;;1.83;1.60;;;10.30;99.90;;;;;;5058256;28;20048;-78
2021/05/13 05:39:22;;;;;;;2.88;1.75;;;10.30;99.90;;;;;;5050055;28;20030;-78
2021/05/13 05:41:48;;;;;;;1.83;1.70;;;10.30;99.90;;;;;;5055693;28;20021;-79
2021/05/13 05:44:14;;;;;;;1.70;1.60;;;10.30;99.90;;;;;;5058207;28;20957;-77
2021/05/13 05:46:41;;;;;;;2.05;1.55;;;10.30;99.90;;;;;;5046739;28;20112;-78
2021/05/13 05:49:06;;;;;;;2.08;1.73;;;10.30;99.90;;;;;;5046562;28;20052;-78
2021/05/13 05:51:32;;;;;;;2.03;1.83;;;10.30;99.90;;;;;;5039963;28;20507;-78
2021/05/13 05:53:58;;;;;;;2.17;1.48;;;10.30;99.90;;;;;;5047844;28;20051;-78
2021/05/13 05:56:23;;;;;;;1.50;1.40;;;10.40;99.90;;;;;;5044583;28;20582;-78
2021/05/13 05:58:49;;;;;;;2.55;1.75;;;10.30;99.90;;;;;;5054264;28;20024;-78
2021/05/13 06:01:15;;;;;;;1.90;1.40;;;10.30;99.90;;;;;;5045242;28;20040;-78
2021/05/13 06:03:40;;;;;;;1.60;1.50;;;10.30;99.90;;;;;;5051175;28;20035;-78
2021/05/13 06:06:06;;;;;;;1.30;1.20;;;10.40;99.90;;;;;;5049249;28;20488;-79
2021/05/13 06:08:32;;;;;;;2.85;1.52;;;10.40;99.90;;;;;;5026757;28;20059;-78
2021/05/13 06:10:58;;;;;;;2.15;1.40;;;10.40;99.90;;;;;;5050571;28;20029;-78
2021/05/13 06:13:23;;;;;;;2.28;1.50;;;10.40;99.90;;;;;;5058437;28;20036;-78
2021/05/13 06:15:49;;;;;;;1.48;1.38;;;10.40;99.90;;;;;;5038881;28;20362;-78
2021/05/13 06:18:15;;;;;;;3.33;1.35;;;10.40;99.90;;;;;;5048532;28;20029;-79
2021/05/13 06:20:40;;;;;;;1.95;1.30;;;10.40;99.90;;;;;;5043745;28;20025;-78
2021/05/13 06:23:08;;;;;;;2.65;1.70;;;10.40;99.90;;;;;;5039672;28;20480;-78
2021/05/13 06:25:35;;;;;;;3.70;1.50;;;10.40;99.90;;;;;;5043943;28;20040;-78
2021/05/13 06:28:01;;;;;;;1.75;1.60;;;10.40;99.90;;;;;;5040127;28;20061;-78
2021/05/13 06:30:27;;;;;;;1.88;1.60;;;10.50;99.90;;;;;;5036970;28;20515;-78
2021/05/13 06:32:53;;;;;;;1.67;1.58;;;10.50;99.90;;;;;;5042452;28;20024;-78
2021/05/13 06:35:20;;;;;;;2.30;1.50;;;10.50;99.90;;;;;;5040345;28;20400;-79
2021/05/13 06:37:46;;;;;;;1.80;1.70;;;10.60;99.90;;;;;;5026758;28;20068;-78
2021/05/13 06:40:13;;;;;;;4.03;1.70;;;10.60;99.90;;;;;;5046209;28;20041;-78
2021/05/13 06:42:39;;;;;;;2.80;1.70;;;10.60;99.90;;;;;;5052624;22;20054;-81
2021/05/13 06:45:06;;;;;;;1.92;1.70;;;10.70;99.90;;;;;;5014705;28;20037;-81
2021/05/13 06:47:33;;;;;;;1.70;1.60;;;10.70;99.90;;;;;;5012010;28;20125;-80
2021/05/13 06:49:59;;;;;;;2.38;2.15;;;10.70;99.90;;;;;;5014075;28;20049;-81
2021/05/13 06:52:25;;;;;;;2.20;2.00;;;10.80;99.90;;;;;;5014462;28;20100;-80
2021/05/13 06:54:50;;;;;;;2.63;1.85;;;10.80;99.90;;;;;;5011944;28;20036;-80
2021/05/13 06:57:16;;;;;;;2.60;2.25;;;10.90;99.90;;;;;;5014560;28;20393;-80
2021/05/13 06:59:43;;;;;;;2.20;1.90;;;10.90;99.90;;;;;;5015344;28;20034;-80
2021/05/13 07:02:10;;;;;;;2.10;1.90;;;11.00;99.90;;;;;;5013956;28;20022;-81
2021/05/13 07:04:36;;;;;;;2.85;1.83;;;11.00;99.90;;;;;;4997774;28;20061;-80
2021/05/13 07:07:02;;;;;;;4.35;2.88;;;11.10;99.90;;;;;;5013658;28;20034;-80
2021/05/13 07:09:27;;;;;;;2.53;2.28;;;11.20;99.90;;;;;;4997973;28;20125;-80
2021/05/13 07:11:53;;;;;;;2.65;2.13;;;11.20;99.90;;;;;;5016162;28;20033;-80
2021/05/13 07:14:21;;;;;;;3.30;2.40;;;11.30;99.90;;;;;;5013689;28;20092;-81
2021/05/13 07:16:47;;;;;;;4.32;2.92;;;11.30;99.90;;;;;;5015093;28;20030;-80
2021/05/13 07:19:14;;;;;;;3.10;2.70;;;11.40;99.90;;;;;;4997999;28;20026;-81
2021/05/13 07:21:40;;;;;;;3.00;2.65;;;11.40;99.90;;;;;;5007389;28;20064;-81
2021/05/13 07:24:06;;;;;;;3.97;2.80;;;11.40;99.90;;;;;;5011639;28;20026;-81
2021/05/13 07:26:31;;;;;;;4.55;3.08;;;11.50;99.90;;;;;;5011503;28;20042;-80
2021/05/13 07:28:57;;;;;;;3.80;2.90;;;11.50;99.90;;;;;;4997866;28;20116;-81
2021/05/13 07:31:23;;;;;;;3.35;2.95;;;11.50;99.90;;;;;;5014782;28;20048;-81
2021/05/13 07:33:49;;;;;;;4.22;3.05;;;11.60;99.90;;;;;;5015242;28;20034;-81
2021/05/13 07:36:15;;;;;;;4.38;3.55;;;11.60;99.90;;;;;;5014089;28;20473;-80
2021/05/13 07:38:41;;;;;;;5.13;3.20;;;11.70;99.90;;;;;;5013565;28;20120;-81
2021/05/13 07:41:07;;;;;;;4.38;3.35;;;11.80;99.90;;;;;;4998825;28;20075;-81
2021/05/13 07:43:34;;;;;;;5.35;3.28;;;11.80;99.90;;;;;;5011718;28;20087;-81
2021/05/13 07:46:01;;;;;;;3.70;3.30;;;11.90;99.90;;;;;;5014355;28;20018;-80
2021/05/13 07:48:28;;;;;;;4.70;3.42;;;11.90;99.90;;;;;;5012882;28;20438;-80
2021/05/13 07:50:55;;;;;;;5.03;3.63;;;12.00;99.90;;;;;;5014758;28;20050;-80
2021/05/13 07:53:21;;;;;;;3.67;3.22;;;12.00;99.90;;;;;;4997076;28;20037;-81
2021/05/13 07:55:47;;;;;;;4.78;3.47;;;12.20;99.90;;;;;;5014421;28;20033;-81
2021/05/13 07:58:13;;;;;;;4.85;3.60;;;12.20;99.90;;;;;;4995242;28;20042;-80
2021/05/13 08:00:40;;;;;;;4.20;3.40;;;12.30;99.90;;;;;;5014224;28;20026;-80
2021/05/13 08:03:05;;;;;;;5.30;3.40;;;12.30;99.90;;;;;;5012125;28;20437;-79
2021/05/13 08:05:31;;;;;;;6.82;2.97;;;12.40;99.90;;;;;;4995167;28;20036;-80
2021/05/13 08:07:57;;;;;;;5.57;3.20;;;12.40;99.90;;;;;;5008176;28;20025;-80
2021/05/13 08:10:23;;;;;;;3.63;2.47;;;12.50;99.90;;;;;;5013595;28;20394;-81
2021/05/13 08:12:48;;;;;;;2.70;2.50;;;12.50;99.90;;;;;;5014918;28;20033;-80
2021/05/13 08:15:15;;;;;;;3.22;2.00;;;12.50;99.90;;;;;;5010528;28;20030;-80
2021/05/13 08:17:43;;;;;;;3.55;2.42;;;12.60;99.90;;;;;;5011889;28;20482;-79
2021/05/13 08:20:12;;;;;;;2.90;2.40;;;12.70;99.90;;;;;;5013178;28;20510;-80
2021/05/13 08:22:39;;;;;;;3.28;2.40;;;12.70;99.90;;;;;;5011890;28;20112;-81
2021/05/13 08:25:06;;;;;;;2.30;1.83;;;12.80;99.90;;;;;;5013378;28;20113;-80
2021/05/13 08:27:32;;;;;;;3.53;2.20;;;12.70;99.90;;;;;;5012878;28;20025;-80
2021/05/13 08:29:59;;;;;;;2.80;2.40;;;12.80;99.90;;;;;;5012369;28;20056;-81
2021/05/13 08:32:25;;;;;;;4.10;2.28;;;12.90;99.90;;;;;;5012578;28;20072;-80
2021/05/13 08:34:53;;;;;;;2.20;1.90;;;13.00;99.90;;;;;;5010012;28;20122;-80
2021/05/13 08:37:19;;;;;;;2.03;1.83;;;13.00;99.90;;;;;;4995500;28;20041;-80
2021/05/13 08:39:45;;;;;;;1.70;1.60;;;13.10;99.90;;;;;;5007514;28;20473;-81
2021/05/13 08:42:12;;;;;;;2.10;1.83;;;13.20;99.90;;;;;;5012505;28;20029;-80
2021/05/13 08:44:42;;;;;;;2.30;2.10;;;13.30;99.90;;;;;;5013863;28;20100;-80
2021/05/13 08:47:09;;;;;;;2.35;1.65;;;13.40;99.90;;;;;;4995294;28;20069;-80
2021/05/13 08:49:39;;;;;;;1.75;1.65;;;13.50;99.90;;;;;;4996849;28;20029;-81
2021/05/13 08:52:08;;;;;;;1.95;1.63;;;13.50;99.90;;;;;;4997004;28;20054;-80
2021/05/13 08:54:34;;;;;;;1.80;1.50;;;13.60;99.90;;;;;;5012054;28;20034;-81
2021/05/13 08:57:00;;;;;;;1.55;1.45;;;13.70;99.90;;;;;;5012478;28;20524;-80
2021/05/13 08:59:28;;;;;;;2.65;1.70;;;13.80;99.90;;;;;;5008074;28;20035;-80
2021/05/13 09:02:00;;;;;;;2.33;1.77;;;13.80;99.90;;;;;;5018218;28;20081;-80
2021/05/13 09:04:40;;;;;;;1.60;1.50;;;13.90;99.90;;;;;;5012488;28;20030;-81
2021/05/13 09:07:35;;;;;;;1.83;1.60;;;14.00;99.90;;;;;;5011309;28;20026;-81
2021/05/13 09:10:08;;;;;;;1.52;1.40;;;14.00;99.90;;;;;;5012699;28;20509;-82
2021/05/13 09:12:47;;;;;;;2.00;1.80;;;14.10;99.90;;;;;;5041967;28;20710;-81
2021/05/13 09:15:18;;;;;;;1.50;1.30;;;14.20;99.90;;;;;;4992522;28;20187;-82
2021/05/13 09:18:00;;;;;;;2.40;1.38;;;14.10;99.90;;;;;;5011535;28;20053;-82
2021/05/13 09:20:26;;;;;;;3.13;1.67;;;14.00;99.90;;;;;;4995966;28;20425;-82
2021/05/13 09:22:52;;;;;;;1.63;1.45;;;14.00;99.90;;;;;;5012253;28;20021;-81
2021/05/13 09:25:18;;;;;;;3.03;1.70;;;14.10;99.90;;;;;;5010807;28;20472;-82
2021/05/13 09:27:51;;;;;;;2.70;1.50;;;14.10;99.90;;;;;;5012556;28;20073;-82
2021/05/13 09:30:24;;;;;;;2.70;1.58;;;14.20;99.90;;;;;;4993795;28;20037;-81
2021/05/13 09:32:55;;;;;;;3.83;2.03;;;14.40;99.90;;;;;;5009721;28;20095;-82
2021/05/13 09:35:32;;;;;;;1.80;1.67;;;14.50;99.90;;;;;;4975629;28;20034;-82
2021/05/13 09:38:03;;;;;;;2.50;1.73;;;14.70;99.90;;;;;;5005064;28;20030;-82
2021/05/13 09:40:34;;;;;;;1.38;1.27;;;14.80;99.90;;;;;;4994089;28;20379;-81
2021/05/13 09:43:18;;;;;;;1.63;1.30;;;14.70;99.90;;;;;;4994691;28;20044;-81
2021/05/13 09:45:56;;;;;;;1.52;1.33;;;14.70;99.90;;;;;;5009575;28;20387;-81
2021/05/13 09:48:56;;;;;;;1.65;1.40;;;14.70;99.90;;;;;;5011672;28;20034;-81
2021/05/13 09:51:36;;;;;;;1.60;1.50;;;14.70;99.90;;;;;;4982559;28;20084;-82
2021/05/13 09:54:12;;;;;;;1.40;1.30;;;14.70;99.90;;;;;;4975514;28;20038;-81
2021/05/13 09:56:46;;;;;;;4.90;1.40;;;14.80;99.90;;;;;;5009165;28;20121;-82
2021/05/13 09:59:31;;;;;;;1.83;1.48;;;14.80;99.90;;;;;;5012283;28;20026;-80
2021/05/13 10:01:59;;;;;;;1.65;1.55;;;14.70;99.90;;;;;;5011085;28;20125;-82
2021/05/13 10:04:26;;;;;;;2.72;1.52;;;14.70;99.90;;;;;;5011177;28;20037;-81
2021/05/13 10:06:52;;;;;;;1.50;1.35;;;14.70;99.90;;;;;;5010680;28;20037;-82
2021/05/13 10:09:20;;;;;;;1.77;1.42;;;14.60;99.90;;;;;;4995665;28;20022;-83
2021/05/13 10:11:55;;;;;;;2.13;1.45;;;14.50;99.90;;;;;;4979346;28;20088;-81
2021/05/13 10:14:23;;;;;;;;;;;14.50;99.90;;;;;;5009221;28;20065;-82
2021/05/13 10:16:50;;;;;;;3.30;1.65;;;14.50;99.90;;;;;;5011476;28;20382;-82
2021/05/13 10:19:27;;;;;;;1.60;1.50;;;14.50;99.90;;;;;;5012791;28;20552;-82
2021/05/13 10:21:55;;;;;;;3.10;1.63;;;14.50;99.90;;;;;;5011127;28;20564;-80
2021/05/13 10:24:20;;;;;;;2.17;1.65;;;14.50;99.90;;;;;;5012097;28;20064;-81
2021/05/13 10:26:50;;;;;;;2.78;1.77;;;14.50;99.90;;;;;;4991002;28;20034;-82
2021/05/13 10:29:22;;;;;;;2.55;1.58;;;14.70;99.90;;;;;;4989024;28;20553;-81
2021/05/13 10:34:41;;;;;;;1.40;1.30;;;14.90;99.90;;;;;;5000479;28;20050;-81
2021/05/13 10:37:16;;;;;;;2.03;1.17;;;15.00;99.90;;;;;;4990172;28;20033;-81
2021/05/13 10:40:00;;;;;;;;;;;15.10;99.90;;;;;;5010184;28;20034;-80
2021/05/13 10:42:31;;;;;;;1.13;1.02;;;15.20;99.90;;;;;;5009335;28;19920;-81
2021/05/13 10:44:57;;;;;;;1.15;1.05;;;15.30;99.90;;;;;;5006685;28;20524;-79
2021/05/13 10:47:30;;;;;;;1.15;1.10;;;15.30;99.90;;;;;;5010855;28;20055;-80
2021/05/13 10:49:57;;;;;;;2.95;1.60;;;15.40;99.90;;;;;;5021842;28;20042;-81
2021/05/13 10:52:35;;;;;;;1.30;1.15;;;15.50;99.90;;;;;;5010720;28;20374;-80
2021/05/13 10:55:04;;;;;;;1.23;1.08;;;15.60;99.90;;;;;;5008210;28;20393;-81
2021/05/13 10:57:46;;;;;;;1.17;1.08;;;15.60;99.90;;;;;;5008746;28;20042;-80
2021/05/13 11:00:18;;;;;;;1.10;1.00;;;15.60;99.90;;;;;;5010266;28;20034;-81
2021/05/13 11:02:46;;;;;;;1.77;0.93;;;15.70;99.90;;;;;;5008831;28;20438;-81
2021/05/13 11:05:26;;;;;;;0.90;0.90;;;15.80;99.90;;;;;;5006701;28;20042;-81
2021/05/13 11:07:56;;;;;;;3.63;0.93;;;15.80;99.90;;;;;;5009392;28;20125;-81
2021/05/13 11:10:48;;;;;;;0.90;0.90;;;15.70;99.90;;;;;;5014982;28;20041;-81
2021/05/13 11:13:14;;;;;;;0.80;0.80;;;15.60;99.90;;;;;;5005560;28;20056;-82
2021/05/13 11:15:52;;;;;;;0.98;0.82;;;15.60;99.90;;;;;;5007056;28;20037;-81
2021/05/13 11:18:25;;;;;;;1.10;0.98;;;15.60;99.90;;;;;;4989379;28;20578;-82
2021/05/13 11:20:55;;;;;;;2.25;1.10;;;15.60;99.90;;;;;;5009665;28;20084;-82
2021/05/13 11:23:25;;;;;;;3.55;1.00;;;15.60;99.90;;;;;;4990385;28;20029;-82
2021/05/13 11:26:01;;;;;;;2.95;1.00;;;15.60;99.90;;;;;;4994726;28;20421;-80
2021/05/13 11:28:32;;;;;;;2.38;0.90;;;15.70;99.90;;;;;;5009781;28;20030;-81
2021/05/13 11:31:04;;;;;;;4.00;1.08;;;15.70;99.90;;;;;;4995154;28;20120;-81
2021/05/13 11:33:45;;;;;;;2.67;0.80;;;15.70;99.90;;;;;;5008286;28;20061;-80
2021/05/13 11:36:13;;;;;;;1.95;1.02;;;15.80;99.90;;;;;;5008867;28;20038;-81
2021/05/13 11:38:39;;;;;;;0.88;0.80;;;15.80;99.90;;;;;;5011977;28;20030;-81
2021/05/13 11:41:06;;;;;;;1.20;1.10;;;15.90;99.90;;;;;;4995805;28;20198;-81
2021/05/13 11:43:36;;;;;;;0.95;0.90;;;16.00;99.90;;;;;;5008106;28;20046;-81
2021/05/13 11:46:08;;;;;;;1.48;1.05;;;16.00;99.90;;;;;;5009773;28;20038;-81
2021/05/13 11:48:37;;;;;;;1.30;1.08;;;16.10;99.90;;;;;;5012180;28;20482;-81
2021/05/13 11:51:04;;;;;;;1.38;1.25;;;16.20;99.90;;;;;;5013560;28;20044;-80
2021/05/13 11:53:30;;;;;;;4.75;1.55;;;16.20;99.90;;;;;;5006678;28;20398;-80
2021/05/13 11:55:57;;;;;;;2.63;1.50;;;16.20;99.90;;;;;;5011177;28;20036;-80
2021/05/13 11:58:45;;;;;;;1.73;1.48;;;16.00;99.90;;;;;;4994703;28;20037;-80
2021/05/13 12:01:15;;;;;;;5.10;1.30;;;15.90;99.90;;;;;;5016465;28;20060;-80
2021/05/13 12:03:40;;;;;;;3.05;1.10;;;15.90;99.90;;;;;;4994121;28;20022;-80
2021/05/13 12:06:06;;;;;;;2.75;1.42;;;15.90;99.90;;;;;;5011944;28;20030;-80
2021/05/13 12:08:34;;;;;;;2.53;1.40;;;16.00;99.90;;;;;;5012140;28;20533;-81
2021/05/13 12:11:00;;;;;;;1.25;1.15;;;16.00;99.90;;;;;;5011602;28;20701;-81
2021/05/13 12:13:27;;;;;;;1.80;1.10;;;16.10;99.90;;;;;;4991873;28;20041;-81
2021/05/13 12:16:05;;;;;;;1.42;1.33;;;16.20;99.90;;;;;;4992256;28;20107;-81
2021/05/13 12:18:32;;;;;;;1.40;1.10;;;16.30;99.90;;;;;;5010193;28;20038;-80
2021/05/13 12:20:58;;;;;;;2.55;1.30;;;16.30;99.90;;;;;;4995978;28;20060;-81
2021/05/13 12:23:25;;;;;;;4.55;1.30;;;16.30;99.90;;;;;;4979899;28;20073;-80
2021/05/13 12:25:50;;;;;;;2.78;1.50;;;16.20;99.90;;;;;;4994877;28;20076;-81
2021/05/13 12:28:17;;;;;;;1.30;1.20;;;16.10;99.90;;;;;;4994838;28;20022;-81
2021/05/13 12:30:55;;;;;;;2.03;1.17;;;16.20;99.90;;;;;;5011704;28;20041;-81
2021/05/13 12:33:25;;;;;;;2.30;1.15;;;16.30;99.90;;;;;;5008824;28;20080;-80
2021/05/13 12:35:53;;;;;;;2.70;1.25;;;16.30;99.90;;;;;;5008984;28;20030;-81
2021/05/13 12:38:21;;;;;;;4.38;1.20;;;16.30;99.90;;;;;;5010084;28;20114;-82
2021/05/13 12:40:49;;;;;;;1.23;1.13;;;16.40;99.90;;;;;;5010323;28;20040;-80
2021/05/13 12:43:19;;;;;;;2.35;0.93;;;16.40;99.90;;;;;;5009731;28;20034;-80
2021/05/13 12:45:47;;;;;;;1.50;1.00;;;16.40;99.90;;;;;;4992869;28;20493;-80
2021/05/13 12:48:27;;;;;;;1.13;0.80;;;16.40;99.90;;;;;;5009672;28;20053;-80
2021/05/13 12:51:01;;;;;;;1.00;0.68;;;16.60;99.90;;;;;;5007831;28;20034;-80
2021/05/13 12:53:28;;;;;;;0.80;0.73;;;16.60;99.90;;;;;;5008569;28;20116;-81
2021/05/13 12:55:55;;;;;;;0.73;0.70;;;16.50;99.90;;;;;;5009352;28;20042;-79
2021/05/13 12:58:24;;;;;;;1.05;0.75;;;16.50;99.90;;;;;;5008845;28;20645;-80
2021/05/13 13:01:00;;;;;;;0.93;0.60;;;16.50;99.90;;;;;;5008838;28;20030;-80
2021/05/13 13:03:31;;;;;;;;;;;16.40;99.90;;;;;;5007169;28;20418;-80
2021/05/13 13:06:07;;;;;;;0.77;0.57;;;16.30;99.90;;;;;;5007371;28;20594;-80